Time;durP1;ratioP1;P1;durP2;ratioP2;P2;SDS_P1;SDS_P2;PMS_P1;PMS_P2;Temp;Humidity;BMP_temperature;BMP_pressure;BME280_temperature;BME280_humidity;BME280_pressure;Samples;Min_cycle;Max_cycle;Signal;HPM_P1;HPM_P2
2021/08/04 00:02:17;;;;;;;3.78;1.48;;;18.60;90.30;;;;;;5030833;28;20040;-73
2021/08/04 00:04:43;;;;;;;6.13;2.05;;;18.50;90.40;;;;;;5031025;28;20467;-72
2021/08/04 00:07:08;;;;;;;3.33;1.80;;;18.60;90.00;;;;;;5030717;28;20038;-73
2021/08/04 00:09:34;;;;;;;4.22;2.75;;;18.50;89.70;;;;;;5030577;28;20091;-73
2021/08/04 00:12:00;;;;;;;3.35;2.03;;;18.60;89.00;;;;;;5030220;28;20116;-73
2021/08/04 00:14:25;;;;;;;5.38;2.22;;;18.60;89.70;;;;;;5030652;28;20499;-73
2021/08/04 00:16:51;;;;;;;2.33;1.65;;;18.60;90.20;;;;;;5029698;28;20029;-72
2021/08/04 00:19:17;;;;;;;4.10;1.65;;;18.50;90.30;;;;;;5030604;28;20029;-73
2021/08/04 00:21:43;;;;;;;2.88;1.80;;;18.50;90.30;;;;;;5033490;28;20048;-74
2021/08/04 00:24:08;;;;;;;3.28;1.40;;;18.50;90.30;;;;;;5034932;28;20029;-72
2021/08/04 00:26:34;;;;;;;4.15;1.40;;;18.50;90.10;;;;;;5033365;28;20030;-72
2021/08/04 00:28:59;;;;;;;2.78;1.52;;;18.50;90.20;;;;;;5033284;28;20104;-74
2021/08/04 00:31:25;;;;;;;4.13;1.90;;;18.50;90.10;;;;;;5034473;28;20037;-74
2021/08/04 00:33:50;;;;;;;1.65;1.55;;;18.50;90.30;;;;;;5034392;28;20087;-73
2021/08/04 00:36:16;;;;;;;1.90;1.52;;;18.40;90.30;;;;;;5034504;28;20107;-72
2021/08/04 00:38:42;;;;;;;2.83;1.80;;;18.50;90.40;;;;;;5035005;28;20454;-72
2021/08/04 00:41:08;;;;;;;2.95;1.60;;;18.40;90.50;;;;;;5034617;28;20037;-72
2021/08/04 00:43:33;;;;;;;6.10;2.10;;;18.40;90.50;;;;;;5033280;28;20036;-73
2021/08/04 00:45:59;;;;;;;3.70;1.88;;;18.50;90.50;;;;;;5034292;28;20025;-72
2021/08/04 00:48:25;;;;;;;5.60;2.15;;;18.50;90.50;;;;;;5034322;28;20364;-72
2021/08/04 00:50:50;;;;;;;2.30;1.77;;;18.50;90.60;;;;;;5034826;28;20039;-72
2021/08/04 00:53:36;;;;;;;2.63;1.50;;;18.40;90.80;;;;;;5034212;28;20038;-72
2021/08/04 00:56:05;;;;;;;2.38;1.50;;;18.40;90.90;;;;;;5034121;28;20080;-73
2021/08/04 00:58:41;;;;;;;1.73;1.55;;;18.30;91.10;;;;;;5033132;28;20460;-72
2021/08/04 01:01:20;;;;;;;4.28;1.70;;;18.30;91.00;;;;;;5033888;28;20102;-73
2021/08/04 01:03:49;;;;;;;9.85;1.90;;;18.40;91.10;;;;;;5034044;28;20503;-73
2021/08/04 01:06:35;;;;;;;1.88;1.70;;;18.40;91.10;;;;;;5033658;28;20021;-73
2021/08/04 01:09:01;;;;;;;1.95;1.70;;;18.50;90.90;;;;;;5034254;28;20128;-73
2021/08/04 01:11:32;;;;;;;3.33;1.50;;;18.50;90.80;;;;;;5033771;28;20099;-75
2021/08/04 01:14:04;;;;;;;5.40;1.63;;;18.50;91.00;;;;;;5034035;28;20056;-73
2021/08/04 01:16:38;;;;;;;3.85;1.75;;;18.50;91.30;;;;;;5033715;28;20053;-73
2021/08/04 01:19:22;;;;;;;4.00;1.80;;;18.50;91.20;;;;;;5033677;28;20456;-72
2021/08/04 01:22:09;;;;;;;4.85;1.50;;;18.50;91.20;;;;;;5033361;28;20371;-72
2021/08/04 01:24:52;;;;;;;3.13;1.90;;;18.40;91.30;;;;;;5033480;28;20117;-72
2021/08/04 01:27:18;;;;;;;2.00;1.63;;;18.40;91.40;;;;;;5033530;28;20406;-73
2021/08/04 01:29:45;;;;;;;2.78;1.83;;;18.30;91.50;;;;;;5033885;28;20117;-72
2021/08/04 01:32:14;;;;;;;5.57;1.98;;;18.30;91.40;;;;;;5031336;28;20607;-72
2021/08/04 01:34:40;;;;;;;2.83;1.75;;;18.40;91.60;;;;;;5033065;28;20041;-72
2021/08/04 01:37:07;;;;;;;3.20;2.08;;;18.40;91.60;;;;;;5052343;28;20479;-73
2021/08/04 01:39:34;;;;;;;1.92;1.50;;;18.30;91.60;;;;;;5053035;28;20057;-71
2021/08/04 01:42:01;;;;;;;3.75;1.80;;;18.30;91.70;;;;;;5052384;28;20017;-74
2021/08/04 01:44:29;;;;;;;3.88;1.80;;;18.30;91.80;;;;;;5052021;28;20025;-72
2021/08/04 01:46:56;;;;;;;2.00;1.80;;;18.30;92.00;;;;;;5053311;28;20059;-72
2021/08/04 01:49:22;;;;;;;1.40;1.30;;;18.20;91.90;;;;;;5053098;28;20032;-73
2021/08/04 01:51:49;;;;;;;3.13;1.58;;;18.20;92.00;;;;;;5053237;28;20090;-74
2021/08/04 01:54:16;;;;;;;1.73;1.33;;;18.10;92.10;;;;;;5052771;28;20059;-73
2021/08/04 01:56:44;;;;;;;3.78;2.10;;;18.10;92.30;;;;;;5053239;28;20017;-73
2021/08/04 01:59:10;;;;;;;4.03;1.90;;;18.10;92.10;;;;;;5052749;28;20025;-72
2021/08/04 02:01:37;;;;;;;4.25;2.00;;;18.10;92.30;;;;;;5052540;28;20116;-72
2021/08/04 02:04:03;;;;;;;3.50;1.83;;;18.00;92.30;;;;;;5052664;28;20454;-72
2021/08/04 02:06:52;;;;;;;1.67;1.55;;;18.00;92.40;;;;;;5051638;28;20025;-73
2021/08/04 02:09:37;;;;;;;5.22;2.35;;;18.00;92.40;;;;;;5052591;28;20059;-74
2021/08/04 02:12:08;;;;;;;2.97;1.65;;;18.00;92.30;;;;;;5052948;28;20024;-73
2021/08/04 02:15:15;;;;;;;4.13;1.70;;;18.10;92.20;;;;;;5052498;28;20029;-73
2021/08/04 02:17:45;;;;;;;2.35;1.60;;;18.10;92.30;;;;;;5030183;28;20033;-73
2021/08/04 02:20:38;;;;;;;4.55;1.85;;;18.10;92.20;;;;;;5048382;28;20037;-73
2021/08/04 02:23:10;;;;;;;2.45;1.70;;;18.20;92.10;;;;;;5052285;28;20049;-73
2021/08/04 02:25:53;;;;;;;2.85;1.90;;;18.10;92.40;;;;;;5052176;28;20478;-72
2021/08/04 02:28:28;;;;;;;3.55;2.00;;;18.10;92.20;;;;;;5051981;28;20394;-73
2021/08/04 02:30:54;;;;;;;3.85;1.90;;;18.10;92.60;;;;;;5052085;28;20044;-72
2021/08/04 02:33:21;;;;;;;10.77;2.35;;;18.20;92.40;;;;;;5052046;28;20040;-72
2021/08/04 02:35:48;;;;;;;3.88;2.03;;;18.20;92.20;;;;;;5052630;28;20056;-74
2021/08/04 02:38:15;;;;;;;3.03;2.10;;;18.10;92.50;;;;;;5051976;28;20037;-74
2021/08/04 02:40:41;;;;;;;2.53;2.05;;;18.10;92.40;;;;;;5052159;28;20094;-73
2021/08/04 02:43:09;;;;;;;2.05;1.83;;;18.10;92.40;;;;;;5051606;28;20045;-71
2021/08/04 02:45:35;;;;;;;;;;;18.10;92.60;;;;;;5052555;28;20128;-72
2021/08/04 02:48:00;;;;;;;3.72;1.77;;;18.10;92.60;;;;;;5052315;28;20366;-73
2021/08/04 02:50:28;;;;;;;6.63;2.05;;;18.10;92.60;;;;;;5050942;28;20455;-71
2021/08/04 02:52:54;;;;;;;3.80;2.00;;;18.10;92.70;;;;;;5051736;28;20116;-72
2021/08/04 02:55:21;;;;;;;5.47;2.40;;;18.10;92.50;;;;;;5051823;28;20032;-73
2021/08/04 02:57:47;;;;;;;3.97;2.30;;;18.10;92.50;;;;;;5051764;28;20033;-72
2021/08/04 03:00:12;;;;;;;3.00;2.42;;;18.20;92.30;;;;;;5051750;28;20040;-72
2021/08/04 03:02:38;;;;;;;10.23;2.72;;;18.10;92.30;;;;;;5051434;28;20040;-73
2021/08/04 03:05:05;;;;;;;2.97;2.08;;;18.20;92.20;;;;;;5051515;28;20026;-74
2021/08/04 03:07:30;;;;;;;6.68;2.90;;;18.10;92.50;;;;;;5051541;28;20056;-74
2021/08/04 03:09:56;;;;;;;2.60;2.40;;;18.10;92.50;;;;;;5051764;28;20120;-74
2021/08/04 03:12:22;;;;;;;3.50;2.78;;;18.10;92.40;;;;;;5051325;28;20091;-72
2021/08/04 03:14:47;;;;;;;6.68;3.03;;;18.20;92.10;;;;;;5052028;28;20021;-72
2021/08/04 03:17:13;;;;;;;4.13;2.33;;;18.10;92.10;;;;;;5051455;28;20123;-72
2021/08/04 03:19:38;;;;;;;5.00;2.83;;;18.10;92.00;;;;;;5051394;28;20112;-73
2021/08/04 03:22:04;;;;;;;7.20;3.20;;;18.20;92.00;;;;;;5051344;28;20037;-73
2021/08/04 03:24:30;;;;;;;8.10;3.38;;;18.20;91.90;;;;;;5051116;28;20102;-73
2021/08/04 03:26:55;;;;;;;6.05;2.78;;;18.20;92.00;;;;;;5051923;28;20028;-73
2021/08/04 03:29:21;;;;;;;8.40;2.75;;;18.20;92.30;;;;;;5050949;28;20645;-73
2021/08/04 03:31:47;;;;;;;5.13;3.00;;;18.20;92.20;;;;;;5051047;28;20478;-73
2021/08/04 03:34:12;;;;;;;6.72;3.60;;;18.20;92.20;;;;;;5051103;28;20486;-72
2021/08/04 03:36:38;;;;;;;5.50;3.28;;;18.20;92.10;;;;;;5050914;28;20037;-75
2021/08/04 03:39:03;;;;;;;13.25;3.22;;;18.20;92.20;;;;;;5051393;28;20104;-72
2021/08/04 03:41:29;;;;;;;7.55;3.40;;;18.20;92.20;;;;;;5051002;28;20241;-74
2021/08/04 03:43:55;;;;;;;5.28;3.05;;;18.10;92.30;;;;;;5051078;28;20342;-73
2021/08/04 03:46:20;;;;;;;4.10;2.90;;;18.20;92.20;;;;;;5050987;28;20033;-73
2021/08/04 03:48:46;;;;;;;5.53;3.00;;;18.10;92.30;;;;;;5050756;28;20033;-73
2021/08/04 03:51:11;;;;;;;4.88;3.05;;;18.10;92.30;;;;;;5050815;28;20186;-74
2021/08/04 03:53:37;;;;;;;4.95;2.67;;;18.00;92.40;;;;;;5051197;28;20122;-72
2021/08/04 03:56:03;;;;;;;5.68;2.97;;;18.00;92.60;;;;;;5050290;28;20037;-73
2021/08/04 03:58:28;;;;;;;6.53;3.08;;;18.00;92.40;;;;;;5050806;28;20029;-72
2021/08/04 04:00:54;;;;;;;4.82;2.78;;;18.00;92.50;;;;;;5050596;28;20518;-73
2021/08/04 04:03:20;;;;;;;3.70;2.65;;;18.10;92.60;;;;;;5050486;28;20103;-73
2021/08/04 04:05:45;;;;;;;4.60;2.83;;;18.00;92.60;;;;;;5051055;28;20017;-73
2021/08/04 04:08:11;;;;;;;4.15;2.95;;;18.00;92.60;;;;;;5050652;28;20332;-75
2021/08/04 04:10:36;;;;;;;4.63;2.65;;;18.00;92.70;;;;;;5049207;28;20430;-72
2021/08/04 04:13:02;;;;;;;5.28;2.97;;;18.00;92.60;;;;;;5050714;28;20036;-74
2021/08/04 04:15:27;;;;;;;6.97;3.08;;;18.10;92.80;;;;;;5050617;28;20029;-72
2021/08/04 04:17:53;;;;;;;4.38;2.95;;;18.10;92.60;;;;;;5051044;28;20025;-74
2021/08/04 04:20:19;;;;;;;6.45;3.28;;;18.10;92.70;;;;;;5050476;28;20131;-73
2021/08/04 04:22:44;;;;;;;7.65;3.83;;;18.00;92.70;;;;;;5050403;28;20049;-73
2021/08/04 04:25:15;;;;;;;4.75;2.90;;;18.10;92.70;;;;;;5050602;28;20109;-72
2021/08/04 04:27:42;;;;;;;7.57;2.80;;;18.10;92.70;;;;;;5050491;28;20070;-73
2021/08/04 04:30:10;;;;;;;4.75;3.25;;;18.10;92.60;;;;;;5050997;28;20355;-72
2021/08/04 04:32:36;;;;;;;5.95;3.47;;;18.10;92.70;;;;;;5050481;28;20033;-73
2021/08/04 04:35:01;;;;;;;5.78;3.22;;;18.10;92.70;;;;;;5050567;28;20021;-72
2021/08/04 04:37:27;;;;;;;3.45;2.80;;;18.10;92.50;;;;;;5050372;28;20037;-73
2021/08/04 04:39:52;;;;;;;5.70;3.05;;;18.10;92.60;;;;;;5049443;28;20304;-72
2021/08/04 04:42:18;;;;;;;8.77;3.25;;;18.10;92.80;;;;;;5050333;28;20057;-72
2021/08/04 04:44:44;;;;;;;9.75;3.65;;;18.10;92.70;;;;;;5050743;28;20048;-72
2021/08/04 04:47:09;;;;;;;16.60;4.35;;;18.10;92.80;;;;;;5050202;28;20087;-72
2021/08/04 04:49:35;;;;;;;5.13;3.10;;;18.00;92.90;;;;;;5048944;28;20036;-72
2021/08/04 04:52:00;;;;;;;5.38;3.42;;;18.00;93.00;;;;;;5049955;28;20031;-72
2021/08/04 04:54:26;;;;;;;4.90;2.90;;;18.00;93.00;;;;;;5050024;28;20108;-72
2021/08/04 04:56:52;;;;;;;4.72;3.03;;;18.00;93.00;;;;;;5050579;28;20021;-72
2021/08/04 04:59:17;;;;;;;4.90;3.00;;;18.00;93.10;;;;;;5048907;28;20025;-73
2021/08/04 05:01:43;;;;;;;5.93;3.50;;;18.00;93.20;;;;;;5050061;28;20486;-72
2021/08/04 05:04:08;;;;;;;3.65;2.42;;;18.00;93.20;;;;;;5050460;28;20029;-72
2021/08/04 05:06:35;;;;;;;6.10;2.95;;;18.00;93.20;;;;;;5052067;28;20027;-74
2021/08/04 05:09:01;;;;;;;7.80;3.00;;;18.00;93.20;;;;;;5054166;28;20025;-73
2021/08/04 05:11:27;;;;;;;7.78;2.97;;;18.00;93.30;;;;;;5053491;28;20037;-73
2021/08/04 05:13:52;;;;;;;4.05;2.70;;;18.00;93.20;;;;;;5053707;28;20029;-73
2021/08/04 05:16:18;;;;;;;5.75;2.67;;;18.00;93.20;;;;;;5053730;28;20604;-73
2021/08/04 05:18:43;;;;;;;6.72;2.90;;;18.00;93.30;;;;;;5053565;28;20033;-72
2021/08/04 05:21:09;;;;;;;7.85;2.88;;;18.00;93.40;;;;;;5054025;28;20025;-72
2021/08/04 05:23:34;;;;;;;3.92;2.35;;;18.00;93.30;;;;;;5053143;28;20371;-72
2021/08/04 05:26:00;;;;;;;5.80;2.67;;;18.00;93.40;;;;;;5052195;28;20498;-72
2021/08/04 05:28:26;;;;;;;3.42;2.53;;;17.90;93.40;;;;;;5053440;28;20036;-73
2021/08/04 05:30:52;;;;;;;5.65;2.63;;;17.90;93.40;;;;;;5053277;28;20044;-73
2021/08/04 05:33:17;;;;;;;8.63;2.53;;;17.90;93.60;;;;;;5053006;28;20039;-74
2021/08/04 05:35:43;;;;;;;5.60;2.45;;;17.90;93.60;;;;;;5053461;28;20021;-73
2021/08/04 05:38:08;;;;;;;6.78;2.90;;;17.90;93.60;;;;;;5053410;28;20463;-74
2021/08/04 05:40:34;;;;;;;5.57;2.78;;;17.90;93.60;;;;;;5053287;28;20063;-74
2021/08/04 05:42:59;;;;;;;6.55;2.45;;;18.00;93.70;;;;;;5052194;28;20033;-73
2021/08/04 05:45:25;;;;;;;3.92;2.60;;;18.00;93.50;;;;;;5051706;28;20040;-74
2021/08/04 05:47:51;;;;;;;7.03;2.70;;;18.00;93.60;;;;;;5053638;28;20036;-74
2021/08/04 05:50:16;;;;;;;7.03;2.75;;;18.00;93.60;;;;;;5052653;28;20112;-74
2021/08/04 05:52:42;;;;;;;7.28;2.55;;;18.00;93.70;;;;;;5052930;28;20091;-73
2021/08/04 05:55:08;;;;;;;3.88;2.40;;;18.10;93.60;;;;;;5052688;28;20083;-72
2021/08/04 05:57:34;;;;;;;7.10;2.42;;;18.10;93.60;;;;;;5052851;28;20414;-73
2021/08/04 06:00:00;;;;;;;3.55;2.22;;;18.10;93.50;;;;;;5053155;28;20025;-74
2021/08/04 06:02:25;;;;;;;5.00;2.55;;;18.10;93.50;;;;;;5051557;28;20101;-73
2021/08/04 06:04:51;;;;;;;13.07;3.75;;;18.10;93.50;;;;;;5052564;28;20025;-74
2021/08/04 06:07:16;;;;;;;6.85;3.28;;;18.10;93.50;;;;;;5052639;28;20036;-72
2021/08/04 06:09:42;;;;;;;6.70;3.38;;;18.10;93.50;;;;;;5052472;28;20553;-73
2021/08/04 06:12:09;;;;;;;5.28;2.75;;;18.10;93.50;;;;;;5053069;28;20108;-73
2021/08/04 06:14:35;;;;;;;3.80;2.60;;;18.10;93.50;;;;;;5052234;28;20089;-73
2021/08/04 06:17:01;;;;;;;5.30;2.42;;;18.10;93.40;;;;;;5052046;28;20309;-73
2021/08/04 06:19:27;;;;;;;5.63;2.97;;;18.10;93.50;;;;;;5051824;28;20063;-74
2021/08/04 06:21:52;;;;;;;3.53;2.60;;;18.10;93.60;;;;;;5052258;28;20044;-73
2021/08/04 06:24:18;;;;;;;7.75;2.40;;;18.10;93.40;;;;;;5051991;28;20021;-73
2021/08/04 06:26:44;;;;;;;5.57;2.50;;;18.10;93.40;;;;;;5052453;28;20013;-74
2021/08/04 06:29:09;;;;;;;2.28;1.95;;;18.20;93.50;;;;;;5052114;28;20022;-73
2021/08/04 06:31:35;;;;;;;5.35;2.35;;;18.10;93.40;;;;;;5052031;28;20055;-72
2021/08/04 06:34:00;;;;;;;4.65;2.60;;;18.10;93.40;;;;;;5051845;28;20104;-73
2021/08/04 06:36:27;;;;;;;3.60;2.50;;;18.10;93.50;;;;;;5050911;28;20467;-75
2021/08/04 06:38:54;;;;;;;9.10;2.70;;;18.20;93.50;;;;;;5052283;28;20031;-73
2021/08/04 06:41:19;;;;;;;3.88;2.50;;;18.20;93.50;;;;;;5050527;28;20052;-72
2021/08/04 06:43:45;;;;;;;3.47;2.22;;;18.20;93.60;;;;;;5050514;28;20471;-74
2021/08/04 06:46:12;;;;;;;4.95;2.45;;;18.30;93.60;;;;;;5050644;28;20044;-74
2021/08/04 06:48:38;;;;;;;12.27;4.40;;;18.20;93.60;;;;;;5050845;28;20036;-74
2021/08/04 06:51:04;;;;;;;9.20;2.72;;;18.30;93.60;;;;;;5051746;28;20108;-73
2021/08/04 06:53:29;;;;;;;6.43;2.53;;;18.30;93.60;;;;;;5051768;28;20074;-75
2021/08/04 06:55:55;;;;;;;5.65;2.60;;;18.30;93.50;;;;;;5051545;28;20028;-72
2021/08/04 06:58:20;;;;;;;5.57;2.50;;;18.30;93.50;;;;;;5051735;28;20025;-73
2021/08/04 07:00:46;;;;;;;5.00;2.60;;;18.30;93.50;;;;;;5051324;28;20074;-74
2021/08/04 07:03:12;;;;;;;9.45;2.25;;;18.40;93.70;;;;;;5051062;28;20032;-73
2021/08/04 07:05:37;;;;;;;8.95;2.80;;;18.40;93.40;;;;;;5051807;28;20328;-72
2021/08/04 07:08:04;;;;;;;8.25;2.85;;;18.40;93.30;;;;;;5051264;28;20025;-73
2021/08/04 07:10:30;;;;;;;3.75;2.50;;;18.40;93.30;;;;;;5050798;28;20511;-75
2021/08/04 07:12:55;;;;;;;4.35;2.58;;;18.40;93.40;;;;;;5051015;28;20046;-72
2021/08/04 07:15:21;;;;;;;8.57;2.50;;;18.40;93.30;;;;;;5051283;28;20021;-73
2021/08/04 07:17:49;;;;;;;3.70;2.33;;;18.40;93.20;;;;;;5051523;28;20033;-73
2021/08/04 07:20:18;;;;;;;7.50;2.65;;;18.40;93.10;;;;;;5051353;28;20040;-73
2021/08/04 07:22:44;;;;;;;3.33;2.47;;;18.40;93.20;;;;;;5049852;28;20053;-73
2021/08/04 07:25:10;;;;;;;6.68;2.65;;;18.40;93.30;;;;;;5051130;28;20036;-74
2021/08/04 07:27:36;;;;;;;4.18;2.03;;;18.40;93.30;;;;;;5049847;28;20040;-74
2021/08/04 07:30:04;;;;;;;3.88;2.58;;;18.40;93.30;;;;;;5050435;28;20029;-72
2021/08/04 07:32:30;;;;;;;5.95;2.50;;;18.40;93.20;;;;;;5050911;28;20362;-74
2021/08/04 07:35:00;;;;;;;5.25;2.47;;;18.50;93.20;;;;;;5051038;28;20032;-73
2021/08/04 07:37:27;;;;;;;3.22;2.28;;;18.50;93.20;;;;;;5049926;28;20106;-73
2021/08/04 07:39:52;;;;;;;2.90;2.35;;;18.50;93.30;;;;;;5050746;28;20171;-75
2021/08/04 07:42:18;;;;;;;5.95;2.70;;;18.50;93.30;;;;;;5050798;28;20107;-74
2021/08/04 07:44:43;;;;;;;5.70;2.80;;;18.60;93.30;;;;;;5051102;28;20020;-74
2021/08/04 07:47:10;;;;;;;4.65;2.28;;;18.60;93.20;;;;;;5050731;28;20021;-73
2021/08/04 07:49:35;;;;;;;4.80;2.35;;;18.80;93.30;;;;;;5050861;28;20139;-73
2021/08/04 07:52:01;;;;;;;6.85;3.90;;;18.80;93.20;;;;;;5049898;28;20535;-73
2021/08/04 07:54:26;;;;;;;6.00;2.70;;;18.90;93.00;;;;;;5049474;28;20335;-73
2021/08/04 07:56:52;;;;;;;6.57;3.03;;;19.10;92.90;;;;;;5051034;28;20021;-73
2021/08/04 07:59:18;;;;;;;5.60;2.47;;;19.10;92.80;;;;;;5050700;28;20060;-73
2021/08/04 08:01:44;;;;;;;4.72;2.50;;;19.30;92.70;;;;;;5050673;28;20025;-73
2021/08/04 08:04:10;;;;;;;5.22;2.50;;;19.40;92.50;;;;;;5050507;28;20140;-74
2021/08/04 08:06:35;;;;;;;7.20;2.50;;;19.40;92.30;;;;;;5050641;28;20426;-75
2021/08/04 08:09:01;;;;;;;5.93;2.72;;;19.50;92.20;;;;;;5051293;28;20032;-72
2021/08/04 08:11:27;;;;;;;7.32;3.13;;;19.60;92.10;;;;;;5050516;28;20045;-73
2021/08/04 08:13:52;;;;;;;9.75;2.80;;;19.70;92.10;;;;;;5050528;28;20108;-73
2021/08/04 08:16:18;;;;;;;3.67;2.88;;;19.70;91.90;;;;;;5050569;28;20167;-74
2021/08/04 08:18:44;;;;;;;4.97;2.60;;;19.80;91.70;;;;;;5050578;28;20057;-75
2021/08/04 08:21:10;;;;;;;6.03;2.65;;;19.80;91.50;;;;;;5051080;28;20083;-74
2021/08/04 08:23:35;;;;;;;3.85;2.40;;;19.60;91.20;;;;;;5049438;28;20057;-73
2021/08/04 08:26:01;;;;;;;9.35;2.53;;;19.50;91.20;;;;;;5050616;28;20032;-72
2021/08/04 08:28:29;;;;;;;10.40;2.80;;;19.70;91.50;;;;;;5049207;28;20048;-72
2021/08/04 08:30:55;;;;;;;6.97;2.50;;;19.80;91.30;;;;;;5050311;28;20130;-74
2021/08/04 08:33:20;;;;;;;3.50;2.50;;;19.80;91.10;;;;;;5049080;28;20033;-74
2021/08/04 08:35:46;;;;;;;7.78;2.60;;;19.90;91.10;;;;;;5050587;28;20104;-72
2021/08/04 08:38:11;;;;;;;5.57;3.30;;;19.90;91.10;;;;;;5050116;28;20456;-72
2021/08/04 08:40:37;;;;;;;9.20;3.60;;;19.90;91.00;;;;;;5050371;28;20418;-74
2021/08/04 08:43:03;;;;;;;8.13;3.40;;;20.00;91.20;;;;;;5052984;28;20048;-73
2021/08/04 08:45:29;;;;;;;9.50;3.53;;;20.10;91.30;;;;;;5054375;28;20021;-73
2021/08/04 08:47:56;;;;;;;8.23;3.60;;;20.20;91.30;;;;;;5054148;28;20027;-74
2021/08/04 08:50:25;;;;;;;8.38;4.13;;;20.40;91.10;;;;;;5053859;28;20040;-72
2021/08/04 08:52:53;;;;;;;6.95;3.83;;;20.40;91.20;;;;;;5053855;28;20048;-73
2021/08/04 08:55:18;;;;;;;8.88;4.15;;;20.40;91.20;;;;;;5052826;28;20025;-73
2021/08/04 08:57:44;;;;;;;6.40;3.70;;;20.40;91.30;;;;;;5052790;28;20029;-72
2021/08/04 09:00:10;;;;;;;5.78;3.78;;;20.20;91.40;;;;;;5054392;28;20112;-73
2021/08/04 09:02:36;;;;;;;7.03;3.50;;;20.20;91.90;;;;;;5053882;28;20041;-73
2021/08/04 09:05:07;;;;;;;10.63;3.60;;;20.60;92.00;;;;;;5053932;28;20452;-74
2021/08/04 09:07:35;;;;;;;7.13;4.32;;;21.00;90.80;;;;;;5052690;28;20129;-72
2021/08/04 09:10:20;;;;;;;;;;;21.10;90.70;;;;;;5053138;28;20147;-74
2021/08/04 09:12:50;;;;;;;6.05;3.40;;;21.80;90.80;;;;;;5052108;28;19920;-73
2021/08/04 09:15:42;;;;;;;9.60;3.22;;;22.70;89.60;;;;;;5053421;28;20036;-73
2021/08/04 09:18:08;;;;;;;8.30;3.67;;;23.40;88.20;;;;;;5052713;28;20033;-74
2021/08/04 09:20:53;;;;;;;6.50;3.00;;;24.10;86.00;;;;;;5052535;28;20090;-73
2021/08/04 09:23:27;;;;;;;9.15;3.72;;;24.50;85.00;;;;;;5053068;28;20064;-74
2021/08/04 09:26:08;;;;;;;28.40;18.08;;;24.90;82.90;;;;;;5053071;28;20033;-74
2021/08/04 09:29:07;;;;;;;10.48;3.95;;;24.90;81.30;;;;;;5053365;28;20037;-73
2021/08/04 09:31:51;;;;;;;5.00;3.00;;;25.10;82.00;;;;;;5053321;28;20041;-73
2021/08/04 09:34:38;;;;;;;9.52;4.10;;;25.10;80.60;;;;;;5052920;28;20057;-74
2021/08/04 09:37:12;;;;;;;3.85;3.22;;;24.90;79.00;;;;;;5052095;28;20094;-73
2021/08/04 09:39:46;;;;;;;6.15;3.60;;;24.80;81.60;;;;;;5051737;28;20029;-74
2021/08/04 09:42:13;;;;;;;5.22;3.15;;;25.20;80.60;;;;;;5051901;28;20025;-73
2021/08/04 09:45:12;;;;;;;5.90;3.47;;;25.60;80.00;;;;;;5053310;28;20455;-74
2021/08/04 09:47:54;;;;;;;8.43;3.50;;;25.60;78.40;;;;;;5031905;28;20048;-74
2021/08/04 09:50:19;;;;;;;6.05;2.63;;;25.60;79.00;;;;;;5049492;28;20087;-74
2021/08/04 09:52:57;;;;;;;7.13;3.42;;;25.40;79.00;;;;;;5051489;28;20467;-73
2021/08/04 09:55:23;;;;;;;5.40;3.28;;;25.70;79.10;;;;;;5052768;28;20037;-75
2021/08/04 09:57:51;;;;;;;9.68;3.20;;;26.40;77.50;;;;;;5052748;28;20078;-74
2021/08/04 10:00:18;;;;;;;;;;;26.60;76.40;;;;;;5053067;28;20430;-74
2021/08/04 10:02:44;;;;;;;8.67;4.07;;;26.90;74.80;;;;;;5053032;28;20390;-74
2021/08/04 10:05:28;;;;;;;14.48;3.90;;;27.10;74.60;;;;;;5052858;28;20751;-73
2021/08/04 10:08:02;;;;;;;8.52;3.08;;;27.10;73.60;;;;;;5052562;28;20398;-74
2021/08/04 10:10:34;;;;;;;5.22;2.60;;;27.00;75.40;;;;;;5052460;28;20033;-73
2021/08/04 10:13:02;;;;;;;9.35;2.60;;;27.10;73.90;;;;;;5052787;28;20033;-73
2021/08/04 10:15:30;;;;;;;5.03;2.47;;;27.10;71.80;;;;;;5051112;28;20032;-73
2021/08/04 10:17:57;;;;;;;7.55;3.00;;;26.00;74.30;;;;;;5052711;28;20017;-73
2021/08/04 10:20:24;;;;;;;7.85;2.75;;;26.60;72.90;;;;;;5051219;28;20033;-73
2021/08/04 10:22:51;;;;;;;5.40;2.72;;;26.40;72.40;;;;;;5052181;28;20110;-73
2021/08/04 10:25:18;;;;;;;;;;;26.50;72.30;;;;;;5051448;28;20097;-73
2021/08/04 10:27:44;;;;;;;5.53;2.28;;;26.30;72.40;;;;;;5052080;28;20343;-73
2021/08/04 10:30:10;;;;;;;10.75;3.05;;;26.20;73.30;;;;;;5052706;28;20049;-74
2021/08/04 10:32:36;;;;;;;3.78;2.45;;;26.10;72.60;;;;;;5052034;28;20435;-73
2021/08/04 10:35:02;;;;;;;4.75;2.97;;;25.80;72.30;;;;;;5050737;28;20143;-73
2021/08/04 10:37:28;;;;;;;4.47;2.78;;;25.80;72.80;;;;;;5052142;28;20107;-74
2021/08/04 10:39:56;;;;;;;5.47;2.90;;;26.00;72.30;;;;;;5051921;28;20029;-74
2021/08/04 10:42:40;;;;;;;4.72;2.65;;;25.90;72.30;;;;;;5050766;28;20040;-73
2021/08/04 10:45:24;;;;;;;9.60;3.67;;;25.90;72.20;;;;;;5051067;28;20036;-73
2021/08/04 10:47:50;;;;;;;6.15;3.65;;;25.80;72.60;;;;;;5051476;28;20044;-74
2021/08/04 10:50:17;;;;;;;7.18;3.50;;;25.60;72.50;;;;;;5051492;28;20086;-72
2021/08/04 10:52:57;;;;;;;4.22;3.25;;;25.60;72.60;;;;;;5051407;28;20025;-73
2021/08/04 10:55:27;;;;;;;10.45;3.40;;;25.30;73.20;;;;;;5050620;28;20535;-73
2021/08/04 10:58:11;;;;;;;7.97;2.70;;;25.50;72.70;;;;;;5051759;28;20379;-73
2021/08/04 11:00:38;;;;;;;3.95;2.40;;;25.70;72.80;;;;;;5051329;28;20025;-73
2021/08/04 11:03:37;;;;;;;5.93;3.03;;;25.50;71.40;;;;;;5050933;28;20037;-74
2021/08/04 11:06:09;;;;;;;9.65;2.63;;;24.70;71.10;;;;;;5050540;28;20108;-74
2021/08/04 11:08:34;;;;;;;7.35;2.83;;;25.00;72.90;;;;;;5051389;28;20040;-74
2021/08/04 11:11:00;;;;;;;4.00;2.90;;;25.30;72.60;;;;;;5050213;28;20045;-73
2021/08/04 11:13:49;;;;;;;5.32;3.15;;;25.40;71.90;;;;;;5051244;28;20033;-73
2021/08/04 11:16:34;;;;;;;5.68;2.35;;;25.50;71.80;;;;;;5050139;28;20124;-71
2021/08/04 11:19:05;;;;;;;3.75;2.25;;;25.60;70.90;;;;;;5051131;28;20115;-72
2021/08/04 11:21:33;;;;;;;6.10;2.40;;;25.30;71.10;;;;;;5050152;28;20060;-73
2021/08/04 11:23:59;;;;;;;5.03;2.88;;;25.30;70.60;;;;;;5051537;28;20059;-74
2021/08/04 11:26:28;;;;;;;9.48;3.20;;;25.10;70.60;;;;;;5050980;28;20033;-72
2021/08/04 11:28:54;;;;;;;5.57;2.30;;;25.10;70.20;;;;;;5051035;28;20021;-74
2021/08/04 11:31:20;;;;;;;4.43;2.72;;;25.00;69.90;;;;;;5050982;28;20060;-74
2021/08/04 11:33:45;;;;;;;5.05;2.55;;;25.10;70.00;;;;;;5051003;28;20040;-73
2021/08/04 11:36:15;;;;;;;6.60;2.78;;;25.00;70.10;;;;;;5050907;28;20033;-73
2021/08/04 11:38:41;;;;;;;4.32;2.85;;;25.00;70.60;;;;;;5051444;28;20036;-73
2021/08/04 11:41:21;;;;;;;6.15;3.05;;;25.00;70.50;;;;;;5050717;28;20184;-72
2021/08/04 11:43:47;;;;;;;6.35;3.25;;;24.90;71.40;;;;;;5050642;28;20086;-72
2021/08/04 11:46:28;;;;;;;7.07;2.97;;;25.00;70.60;;;;;;5050755;28;20518;-72
2021/08/04 11:48:54;;;;;;;5.70;3.00;;;24.60;69.90;;;;;;5050711;28;20033;-73
2021/08/04 11:51:32;;;;;;;3.42;2.58;;;24.60;71.20;;;;;;5050640;28;20031;-73
2021/08/04 11:53:58;;;;;;;5.60;3.42;;;24.80;71.30;;;;;;5051065;28;20021;-73
2021/08/04 11:56:24;;;;;;;7.93;3.22;;;24.70;70.80;;;;;;5049627;28;20253;-73
2021/08/04 11:58:50;;;;;;;5.93;3.40;;;24.90;71.30;;;;;;5050589;28;20033;-72
2021/08/04 12:01:17;;;;;;;5.90;3.15;;;25.10;70.80;;;;;;5050468;28;20363;-73
2021/08/04 12:03:43;;;;;;;11.68;3.83;;;25.30;70.40;;;;;;5050737;28;20479;-73
2021/08/04 12:06:16;;;;;;;6.55;3.38;;;25.20;69.70;;;;;;5051078;28;20027;-72
2021/08/04 12:08:42;;;;;;;4.80;3.10;;;25.00;69.80;;;;;;5049710;28;20048;-73
2021/08/04 12:11:09;;;;;;;5.32;3.50;;;25.20;70.00;;;;;;5050482;28;20033;-72
2021/08/04 12:13:34;;;;;;;6.82;3.40;;;25.30;69.30;;;;;;5050463;28;20072;-72
2021/08/04 12:16:00;;;;;;;6.40;3.25;;;25.10;69.50;;;;;;5051687;28;20438;-73
2021/08/04 12:18:26;;;;;;;6.97;3.50;;;25.00;69.40;;;;;;5054524;28;20021;-73
2021/08/04 12:20:53;;;;;;;11.85;2.97;;;25.30;70.10;;;;;;5054832;28;20524;-74
2021/08/04 12:23:23;;;;;;;5.80;2.75;;;25.40;69.40;;;;;;5054260;28;20069;-72
2021/08/04 12:25:59;;;;;;;7.07;2.65;;;25.60;69.80;;;;;;5054207;28;20352;-73
2021/08/04 12:28:29;;;;;;;6.15;3.47;;;25.70;68.60;;;;;;5054300;28;20120;-74
2021/08/04 12:30:56;;;;;;;11.90;5.05;;;25.80;69.00;;;;;;5054266;28;20401;-73
2021/08/04 12:33:27;;;;;;;5.85;2.40;;;25.80;68.60;;;;;;5054436;28;20032;-74
2021/08/04 12:38:48;;;;;;;6.10;2.53;;;25.80;68.50;;;;;;5054588;28;20120;-72
2021/08/04 12:41:21;;;;;;;9.70;3.00;;;25.70;68.40;;;;;;5054235;28;20112;-72
2021/08/04 12:43:47;;;;;;;6.65;4.38;;;25.60;68.90;;;;;;5053934;28;20033;-73
2021/08/04 12:46:13;;;;;;;5.35;2.72;;;25.40;69.00;;;;;;5054220;28;20028;-73
2021/08/04 12:48:41;;;;;;;3.80;2.40;;;25.20;68.80;;;;;;5054083;28;20029;-73
2021/08/04 12:51:14;;;;;;;3.45;2.63;;;25.10;69.20;;;;;;5054380;28;20025;-73
2021/08/04 12:53:41;;;;;;;4.03;2.22;;;25.10;69.40;;;;;;5054029;28;20029;-73
2021/08/04 12:56:12;;;;;;;2.55;2.10;;;25.00;69.30;;;;;;5054171;28;20097;-72
2021/08/04 12:59:03;;;;;;;2.83;2.25;;;25.00;69.30;;;;;;5053812;28;20037;-72